Andover, Connecticut
Current Conditions -  °F | °C
As of 3:52 AM on Wednesday 22 Oct 2014 (Local Time) from KIJD Reporting Station
Overcast Overcast  
Wind Chill: 54°   Ceiling: 900
Heat Index: 54°   Visibility: 10mi
Dew Point: 49°   Wind: 13mph
Humidity: 83%   Direction: 30°NNE
Pressure: 29.95"   Gusts: NA
Location:  41.74°N, 72.37°W
Report Text: KIJD 220752Z AUTO 03011KT 10SM OVC009 12/09 A2995 RMK AO2 SLP140 T01220094
Loading
Personal Weather Stations






























Interactive Weather Map New forecast layout! Learn more

10-Day Weather Forecast

Advertisements
Track Severe Weather on mobile